createdAt,value
2023-10-03T00:00:41.473Z,16.56
2023-10-03T00:01:41.425Z,16.56
2023-10-03T00:02:41.462Z,16.56
2023-10-03T00:03:41.654Z,16.52
2023-10-03T00:04:41.462Z,16.50
2023-10-03T00:05:41.409Z,16.50
2023-10-03T00:06:41.353Z,16.52
2023-10-03T00:07:42.331Z,16.53
2023-10-03T00:08:41.368Z,16.52
2023-10-03T00:09:41.353Z,16.50
2023-10-03T00:10:42.373Z,16.48
2023-10-03T00:11:41.355Z,16.44
2023-10-03T00:12:41.300Z,16.44
2023-10-03T00:13:41.264Z,16.48
2023-10-03T00:14:41.309Z,16.49
2023-10-03T00:15:41.256Z,16.52
2023-10-03T00:16:41.251Z,16.52
2023-10-03T00:17:41.285Z,16.53
2023-10-03T00:18:41.214Z,16.56
2023-10-03T00:19:41.217Z,16.59
2023-10-03T00:20:41.258Z,16.58
2023-10-03T00:21:41.159Z,16.56
2023-10-03T00:22:41.186Z,16.59
2023-10-03T00:23:42.124Z,16.60
2023-10-03T00:24:41.107Z,16.60
2023-10-03T00:25:41.149Z,16.63
2023-10-03T00:26:41.169Z,16.63
2023-10-03T00:27:41.086Z,16.63
2023-10-03T00:28:41.126Z,16.62
2023-10-03T00:29:41.107Z,16.60
2023-10-03T00:30:41.401Z,16.59
2023-10-03T00:31:41.044Z,16.60
2023-10-03T00:32:41.038Z,16.60
2023-10-03T00:33:41.180Z,16.59
2023-10-03T00:34:41.021Z,16.60
2023-10-03T00:35:41.001Z,16.62
2023-10-03T00:36:40.941Z,16.65
2023-10-03T00:37:40.960Z,16.65
2023-10-03T00:38:40.983Z,16.65
2023-10-03T00:39:40.906Z,16.67
2023-10-03T00:40:40.944Z,16.65
2023-10-03T00:41:41.700Z,16.60
2023-10-03T00:42:40.862Z,16.62
2023-10-03T00:43:40.877Z,16.62
2023-10-03T00:44:40.876Z,16.63
2023-10-03T00:45:40.859Z,16.62
2023-10-03T00:46:41.168Z,16.60
2023-10-03T00:47:40.868Z,16.59
2023-10-03T00:48:40.882Z,16.59
2023-10-03T00:49:40.771Z,16.56
2023-10-03T00:50:40.917Z,16.60
2023-10-03T00:51:40.859Z,16.62
2023-10-03T00:52:40.792Z,16.63
2023-10-03T00:53:40.742Z,16.65
2023-10-03T00:54:40.695Z,16.60
2023-10-03T00:55:40.717Z,16.59
2023-10-03T00:56:41.666Z,16.59
2023-10-03T00:57:41.368Z,16.59
2023-10-03T00:58:40.701Z,16.56
2023-10-03T00:59:40.690Z,16.55
2023-10-03T01:00:40.680Z,16.53
2023-10-03T01:01:40.609Z,16.49
2023-10-03T01:02:40.772Z,16.42
2023-10-03T01:03:40.859Z,16.41
2023-10-03T01:04:40.808Z,16.37
2023-10-03T01:05:40.637Z,16.30
2023-10-03T01:06:40.561Z,16.25
2023-10-03T01:07:40.526Z,16.23
2023-10-03T01:08:40.923Z,16.23
2023-10-03T01:09:40.523Z,16.20
2023-10-03T01:10:40.535Z,16.14
2023-10-03T01:11:40.490Z,16.04
2023-10-03T01:12:40.478Z,15.94
2023-10-03T01:13:44.102Z,15.96
2023-10-03T01:14:40.457Z,15.94
2023-10-03T01:15:40.458Z,15.86
2023-10-03T01:16:40.658Z,15.81
2023-10-03T01:17:40.516Z,15.84
2023-10-03T01:18:40.424Z,15.79
2023-10-03T01:19:40.367Z,15.74
2023-10-03T01:20:40.380Z,15.66
2023-10-03T01:21:40.328Z,15.60
2023-10-03T01:22:40.356Z,15.49
2023-10-03T01:23:40.386Z,15.36
2023-10-03T01:24:40.294Z,15.30
2023-10-03T01:25:40.310Z,15.26
2023-10-03T01:26:40.364Z,15.17
2023-10-03T01:27:41.217Z,15.11
2023-10-03T01:28:40.280Z,15.05
2023-10-03T01:29:40.273Z,14.99
2023-10-03T01:30:40.268Z,14.98
2023-10-03T01:31:40.224Z,14.99
2023-10-03T01:32:40.249Z,15.06
2023-10-03T01:33:41.151Z,15.08
2023-10-03T01:34:40.229Z,15.09
2023-10-03T01:35:40.258Z,15.12
2023-10-03T01:36:40.145Z,15.09
2023-10-03T01:37:41.073Z,15.06
2023-10-03T01:38:40.110Z,15.01
2023-10-03T01:39:40.112Z,14.95
2023-10-03T01:40:42.702Z,14.91
2023-10-03T01:41:41.050Z,14.83
2023-10-03T01:42:40.037Z,14.80
2023-10-03T01:43:40.058Z,14.75
2023-10-03T01:44:40.071Z,14.71
2023-10-03T01:45:40.990Z,14.75
2023-10-03T01:46:40.297Z,14.84
2023-10-03T01:47:40.036Z,14.84
2023-10-03T01:48:40.948Z,14.84
2023-10-03T01:49:39.944Z,14.90
2023-10-03T01:50:39.960Z,14.88
2023-10-03T01:51:39.945Z,14.87
2023-10-03T01:52:39.939Z,14.91
2023-10-03T01:53:39.974Z,14.91
2023-10-03T01:54:39.900Z,14.90
2023-10-03T01:55:39.868Z,14.93
2023-10-03T01:56:39.872Z,14.93
2023-10-03T01:57:39.867Z,15.01
2023-10-03T01:58:40.833Z,15.08
2023-10-03T01:59:39.846Z,15.13
2023-10-03T02:00:39.814Z,15.21
2023-10-03T02:01:39.818Z,15.27
2023-10-03T02:02:39.897Z,15.35
2023-10-03T02:03:39.932Z,15.38
2023-10-03T02:04:39.764Z,15.46
2023-10-03T02:05:39.795Z,15.54
2023-10-03T02:06:39.735Z,15.56
2023-10-03T02:07:39.700Z,15.61
2023-10-03T02:08:39.772Z,15.70
2023-10-03T02:09:39.677Z,15.74
2023-10-03T02:10:39.692Z,15.76
2023-10-03T02:11:39.697Z,15.82
2023-10-03T02:12:39.651Z,15.86
2023-10-03T02:13:39.622Z,15.93
2023-10-03T02:14:39.639Z,15.97
2023-10-03T02:15:39.682Z,15.99
2023-10-03T02:16:39.650Z,16.01
2023-10-03T02:17:39.658Z,16.07
2023-10-03T02:18:39.616Z,16.09
2023-10-03T02:19:39.537Z,16.14
2023-10-03T02:20:39.681Z,16.15
2023-10-03T02:21:39.504Z,16.14
2023-10-03T02:22:39.539Z,16.16
2023-10-03T02:23:40.504Z,16.22
2023-10-03T02:24:40.428Z,16.23
2023-10-03T02:25:39.492Z,16.25
2023-10-03T02:26:39.525Z,16.23
2023-10-03T02:27:40.418Z,16.25
2023-10-03T02:28:39.485Z,16.25
2023-10-03T02:29:39.453Z,16.26
2023-10-03T02:30:39.386Z,16.23
2023-10-03T02:31:39.467Z,16.23
2023-10-03T02:32:39.419Z,16.22
2023-10-03T02:33:39.376Z,16.22
2023-10-03T02:34:39.365Z,16.22
2023-10-03T02:35:39.326Z,16.23
2023-10-03T02:36:39.322Z,16.25
2023-10-03T02:37:39.287Z,16.27
2023-10-03T02:38:40.147Z,16.30
2023-10-03T02:39:39.283Z,16.30
2023-10-03T02:40:39.265Z,16.31
2023-10-03T02:41:40.638Z,16.30
2023-10-03T02:42:39.241Z,16.26
2023-10-03T02:43:39.200Z,16.26
2023-10-03T02:44:39.257Z,16.25
2023-10-03T02:45:40.186Z,16.26
2023-10-03T02:46:39.237Z,16.26
2023-10-03T02:47:39.234Z,16.26
2023-10-03T02:48:39.169Z,16.27
2023-10-03T02:49:39.129Z,16.27
2023-10-03T02:50:39.126Z,16.26
2023-10-03T02:51:39.134Z,16.27
2023-10-03T02:52:39.121Z,16.25
2023-10-03T02:53:39.108Z,16.25
2023-10-03T02:54:39.070Z,16.23
2023-10-03T02:55:39.043Z,16.23
2023-10-03T02:56:39.084Z,16.23
2023-10-03T02:57:39.017Z,16.22
2023-10-03T02:58:39.028Z,16.15
2023-10-03T02:59:39.130Z,16.14
2023-10-03T03:00:38.995Z,16.18
2023-10-03T03:01:39.901Z,16.22
2023-10-03T03:02:39.089Z,16.25
2023-10-03T03:03:39.051Z,16.26
2023-10-03T03:04:38.939Z,16.30
2023-10-03T03:05:39.143Z,16.27
2023-10-03T03:06:39.876Z,16.27
2023-10-03T03:07:38.870Z,16.27
2023-10-03T03:08:38.909Z,16.26
2023-10-03T03:09:38.867Z,16.26
2023-10-03T03:10:39.817Z,16.26
2023-10-03T03:11:38.930Z,16.25
2023-10-03T03:12:38.798Z,16.26
2023-10-03T03:13:38.819Z,16.26
2023-10-03T03:14:38.810Z,16.25
2023-10-03T03:15:39.491Z,16.26
2023-10-03T03:16:38.780Z,16.27
2023-10-03T03:17:38.848Z,16.31
2023-10-03T03:18:38.773Z,16.27
2023-10-03T03:19:38.705Z,16.30
2023-10-03T03:20:38.771Z,16.27
2023-10-03T03:21:38.690Z,16.26
2023-10-03T03:22:38.681Z,16.23
2023-10-03T03:23:38.697Z,16.25
2023-10-03T03:24:38.631Z,16.25
2023-10-03T03:25:38.653Z,16.27
2023-10-03T03:26:39.316Z,16.31
2023-10-03T03:27:38.597Z,16.35
2023-10-03T03:28:40.254Z,16.37
2023-10-03T03:29:38.570Z,16.37
2023-10-03T03:30:38.618Z,16.40
2023-10-03T03:31:38.698Z,16.41
2023-10-03T03:32:38.656Z,16.41
2023-10-03T03:33:38.571Z,16.44
2023-10-03T03:34:38.611Z,16.48
2023-10-03T03:35:38.535Z,16.50
2023-10-03T03:36:38.476Z,16.53
2023-10-03T03:37:38.487Z,16.55
2023-10-03T03:38:38.547Z,16.58
2023-10-03T03:39:38.433Z,16.56
2023-10-03T03:40:38.475Z,16.59
2023-10-03T03:41:38.425Z,16.60
2023-10-03T03:42:38.393Z,16.63
2023-10-03T03:43:38.404Z,16.73
2023-10-03T03:44:39.416Z,16.75
2023-10-03T03:45:38.403Z,16.77
2023-10-03T03:46:38.416Z,16.81
2023-10-03T03:47:38.374Z,16.85
2023-10-03T03:48:38.334Z,16.85
2023-10-03T03:49:38.325Z,16.86
2023-10-03T03:50:38.355Z,16.88
2023-10-03T03:51:38.269Z,16.89
2023-10-03T03:52:38.318Z,16.88
2023-10-03T03:53:38.296Z,16.85
2023-10-03T03:54:38.249Z,16.89
2023-10-03T03:55:38.241Z,16.93
2023-10-03T03:56:38.222Z,16.98
2023-10-03T03:57:38.215Z,17.03
2023-10-03T03:58:38.336Z,17.07
2023-10-03T03:59:38.188Z,17.15
2023-10-03T04:00:38.180Z,17.18
2023-10-03T04:01:38.175Z,17.23
2023-10-03T04:02:38.176Z,17.29
2023-10-03T04:03:38.230Z,17.32
2023-10-03T04:04:38.217Z,17.38
2023-10-03T04:05:38.213Z,17.43
2023-10-03T04:06:38.070Z,17.54
2023-10-03T04:07:38.077Z,17.63
2023-10-03T04:08:43.249Z,17.73
2023-10-03T04:09:39.149Z,17.82
2023-10-03T04:10:38.041Z,17.87
2023-10-03T04:11:38.541Z,17.92
2023-10-03T04:12:38.021Z,17.99
2023-10-03T04:13:37.978Z,18.06
2023-10-03T04:14:38.013Z,18.12
2023-10-03T04:15:38.083Z,18.13
2023-10-03T04:16:37.935Z,18.19
2023-10-03T04:17:38.020Z,18.25
2023-10-03T04:18:38.025Z,18.29
2023-10-03T04:19:37.896Z,18.31
2023-10-03T04:20:37.908Z,18.31
2023-10-03T04:21:37.925Z,18.29
2023-10-03T04:22:37.923Z,18.29
2023-10-03T04:23:37.846Z,18.27
2023-10-03T04:24:37.881Z,18.25
2023-10-03T04:25:37.812Z,18.22
2023-10-03T04:26:37.875Z,18.21
2023-10-03T04:27:41.801Z,18.21
2023-10-03T04:28:37.782Z,18.21
2023-10-03T04:29:37.843Z,18.21
2023-10-03T04:30:37.791Z,18.19
2023-10-03T04:31:37.770Z,18.19
2023-10-03T04:32:37.853Z,18.19
2023-10-03T04:33:37.901Z,18.18
2023-10-03T04:34:37.726Z,18.17
2023-10-03T04:35:37.795Z,18.15
2023-10-03T04:36:37.697Z,18.15
2023-10-03T04:37:37.691Z,18.10
2023-10-03T04:38:37.711Z,18.07
2023-10-03T04:39:37.669Z,18.06
2023-10-03T04:40:37.673Z,18.03
2023-10-03T04:41:37.639Z,18.03
2023-10-03T04:42:37.647Z,18.00
2023-10-03T04:43:38.338Z,18.00
2023-10-03T04:44:37.569Z,17.97
2023-10-03T04:45:38.187Z,17.97
2023-10-03T04:46:37.560Z,17.97
2023-10-03T04:47:41.459Z,18.00
2023-10-03T04:48:41.631Z,18.00
2023-10-03T04:49:38.828Z,18.00
2023-10-03T04:50:37.555Z,18.03
2023-10-03T04:51:37.513Z,18.03
2023-10-03T04:52:37.476Z,18.04
2023-10-03T04:53:37.500Z,18.06
2023-10-03T04:54:37.450Z,18.06
2023-10-03T04:55:37.427Z,18.10
2023-10-03T04:56:37.446Z,18.13
2023-10-03T04:57:49.928Z,18.15
2023-10-03T04:58:37.408Z,18.15
2023-10-03T04:59:37.439Z,18.13
2023-10-03T05:00:37.376Z,18.09
2023-10-03T05:01:37.450Z,18.07
2023-10-03T05:02:37.393Z,18.04
2023-10-03T05:03:37.536Z,18.04
2023-10-03T05:04:37.389Z,18.04
2023-10-03T05:05:37.352Z,18.02
2023-10-03T05:06:37.517Z,18.03
2023-10-03T05:07:37.249Z,18.06
2023-10-03T05:08:37.268Z,18.06
2023-10-03T05:09:37.296Z,18.07
2023-10-03T05:10:37.233Z,18.09
2023-10-03T05:11:37.288Z,18.10
2023-10-03T05:12:37.228Z,18.13
2023-10-03T05:13:37.205Z,18.18
2023-10-03T05:14:37.205Z,18.19
2023-10-03T05:15:37.203Z,18.24
2023-10-03T05:16:37.227Z,18.27
2023-10-03T05:17:38.265Z,18.31
2023-10-03T05:18:38.488Z,18.40
2023-10-03T05:19:37.848Z,18.47
2023-10-03T05:20:38.111Z,18.52
2023-10-03T05:21:37.142Z,18.57
2023-10-03T05:22:37.067Z,18.61
2023-10-03T05:23:37.108Z,18.64
2023-10-03T05:24:37.050Z,18.65
2023-10-03T05:25:37.011Z,18.65
2023-10-03T05:26:37.009Z,18.67
2023-10-03T05:27:37.048Z,18.65
2023-10-03T05:28:36.972Z,18.65
2023-10-03T05:29:37.048Z,18.67
2023-10-03T05:30:36.988Z,18.65
2023-10-03T05:31:38.591Z,18.67
2023-10-03T05:32:37.100Z,18.70
2023-10-03T05:33:37.011Z,18.73
2023-10-03T05:34:36.889Z,18.73
2023-10-03T05:35:37.357Z,18.70
2023-10-03T05:36:36.856Z,18.68
2023-10-03T05:37:36.871Z,18.70
2023-10-03T05:38:36.932Z,18.73
2023-10-03T05:39:36.843Z,18.74
2023-10-03T05:40:36.863Z,18.77
2023-10-03T05:41:36.848Z,18.77
2023-10-03T05:42:36.785Z,18.82
2023-10-03T05:43:36.784Z,18.86
2023-10-03T05:44:36.798Z,18.86
2023-10-03T05:45:37.672Z,18.90
2023-10-03T05:46:36.762Z,18.87
2023-10-03T05:47:36.764Z,18.86
2023-10-03T05:48:36.926Z,18.90
2023-10-03T05:49:36.675Z,18.92
2023-10-03T05:50:36.995Z,18.94
2023-10-03T05:51:37.677Z,18.98
2023-10-03T05:52:36.639Z,19.06
2023-10-03T05:53:37.634Z,19.11
2023-10-03T05:54:36.658Z,19.17
2023-10-03T05:55:36.650Z,19.18
2023-10-03T05:56:37.293Z,19.21
2023-10-03T05:57:36.668Z,19.23
2023-10-03T05:58:36.595Z,19.23
2023-10-03T05:59:36.589Z,19.25
2023-10-03T06:00:36.613Z,19.28
2023-10-03T06:01:36.535Z,19.29
2023-10-03T06:02:36.581Z,19.32
2023-10-03T06:03:36.679Z,19.33
2023-10-03T06:04:37.447Z,19.35
2023-10-03T06:05:36.570Z,19.38
2023-10-03T06:06:36.474Z,19.38
2023-10-03T06:07:36.426Z,19.39
2023-10-03T06:08:37.172Z,19.39
2023-10-03T06:09:36.435Z,19.39
2023-10-03T06:10:36.400Z,19.42
2023-10-03T06:11:40.559Z,19.43
2023-10-03T06:12:37.191Z,19.47
2023-10-03T06:13:36.355Z,19.47
2023-10-03T06:14:36.367Z,19.50
2023-10-03T06:15:36.377Z,19.53
2023-10-03T06:16:36.349Z,19.57
2023-10-03T06:17:36.460Z,19.60
2023-10-03T06:18:36.369Z,19.65
2023-10-03T06:19:36.275Z,19.66
2023-10-03T06:20:36.423Z,19.69
2023-10-03T06:21:36.388Z,19.73
2023-10-03T06:22:37.179Z,19.76
2023-10-03T06:23:36.270Z,19.78
2023-10-03T06:24:36.207Z,19.79
2023-10-03T06:25:36.205Z,19.79
2023-10-03T06:26:36.918Z,19.79
2023-10-03T06:27:36.175Z,19.80
2023-10-03T06:28:36.147Z,19.80
2023-10-03T06:29:37.839Z,19.84
2023-10-03T06:30:36.167Z,19.86
2023-10-03T06:31:36.095Z,19.86
2023-10-03T06:32:40.898Z,19.88
2023-10-03T06:33:36.259Z,19.88
2023-10-03T06:34:36.074Z,19.93
2023-10-03T06:35:36.097Z,20.00
2023-10-03T06:36:36.815Z,20.06
2023-10-03T06:37:36.040Z,20.08
2023-10-03T06:38:36.055Z,20.12
2023-10-03T06:39:36.080Z,20.10
2023-10-03T06:40:36.002Z,20.12
2023-10-03T06:41:35.993Z,20.13
2023-10-03T06:42:35.957Z,20.16
2023-10-03T06:43:35.967Z,20.16
2023-10-03T06:44:36.912Z,20.16
2023-10-03T06:45:35.959Z,20.21
2023-10-03T06:46:35.971Z,20.25
2023-10-03T06:47:36.940Z,20.31
2023-10-03T06:48:36.816Z,20.33
2023-10-03T06:49:35.850Z,20.38
2023-10-03T06:50:35.862Z,20.41
2023-10-03T06:51:35.869Z,20.42
2023-10-03T06:52:35.812Z,20.46
2023-10-03T06:53:36.692Z,20.49
2023-10-03T06:54:35.828Z,20.49
2023-10-03T06:55:35.763Z,20.51
2023-10-03T06:56:35.816Z,20.56
2023-10-03T06:57:36.109Z,20.61
2023-10-03T06:58:35.751Z,20.65
2023-10-03T06:59:35.795Z,20.68
2023-10-03T07:00:35.773Z,20.69
2023-10-03T07:01:35.690Z,20.69
2023-10-03T07:02:35.756Z,20.74
2023-10-03T07:03:35.820Z,20.76
2023-10-03T07:04:43.053Z,20.77
2023-10-03T07:05:35.685Z,20.77
2023-10-03T07:06:35.676Z,20.84
2023-10-03T07:07:35.606Z,20.87
2023-10-03T07:08:35.608Z,20.98
2023-10-03T07:09:35.624Z,21.01
2023-10-03T07:10:35.582Z,21.08
2023-10-03T07:11:36.590Z,21.08
2023-10-03T07:12:35.570Z,21.05
2023-10-03T07:13:35.527Z,21.05
2023-10-03T07:14:35.582Z,21.08
2023-10-03T07:15:35.557Z,21.06
2023-10-03T07:16:35.546Z,21.05
2023-10-03T07:17:36.514Z,21.04
2023-10-03T07:18:35.643Z,21.06
2023-10-03T07:19:35.452Z,21.06
2023-10-03T07:20:36.146Z,21.09
2023-10-03T07:21:36.439Z,21.13
2023-10-03T07:22:35.601Z,21.14
2023-10-03T07:23:38.666Z,21.21
2023-10-03T07:24:35.414Z,21.23
2023-10-03T07:25:36.060Z,21.21
2023-10-03T07:26:36.359Z,21.20
2023-10-03T07:27:36.171Z,21.24
2023-10-03T07:28:35.345Z,21.24
2023-10-03T07:29:35.611Z,21.19
2023-10-03T07:30:35.806Z,21.20
2023-10-03T07:31:35.334Z,21.17
2023-10-03T07:32:35.384Z,21.17
2023-10-03T07:33:35.387Z,21.23
2023-10-03T07:34:35.255Z,21.19
2023-10-03T07:35:35.298Z,21.19
2023-10-03T07:36:35.259Z,21.14
2023-10-03T07:37:35.199Z,21.14
2023-10-03T07:38:35.232Z,21.13
2023-10-03T07:39:35.204Z,21.11
2023-10-03T07:40:35.176Z,21.11
2023-10-03T07:41:35.198Z,21.14
2023-10-03T07:42:35.139Z,21.16
2023-10-03T07:43:39.107Z,21.13
2023-10-03T07:44:35.192Z,21.11
2023-10-03T07:45:35.132Z,21.06
2023-10-03T07:46:35.155Z,21.02
2023-10-03T07:47:35.140Z,20.98
2023-10-03T07:48:35.166Z,21.01
2023-10-03T07:49:35.067Z,21.04
2023-10-03T07:50:35.094Z,21.09
2023-10-03T07:51:35.069Z,21.08
2023-10-03T07:52:35.063Z,21.04
2023-10-03T07:53:35.077Z,21.06
2023-10-03T07:54:34.980Z,21.13
2023-10-03T07:55:35.958Z,21.16
2023-10-03T07:56:35.408Z,21.16
2023-10-03T07:57:34.969Z,21.17
2023-10-03T07:58:35.913Z,21.14
2023-10-03T07:59:35.069Z,21.08
2023-10-03T08:00:34.898Z,21.09
2023-10-03T08:01:53.297Z,21.14
2023-10-03T08:02:36.980Z,21.11
2023-10-03T08:03:34.997Z,21.09
2023-10-03T08:04:35.795Z,21.17
2023-10-03T08:05:35.863Z,21.23
2023-10-03T08:06:34.855Z,21.20
2023-10-03T08:07:34.828Z,21.20
2023-10-03T08:08:35.837Z,21.17
2023-10-03T08:09:35.744Z,21.13
2023-10-03T08:10:34.790Z,21.04
2023-10-03T08:11:35.753Z,20.98
2023-10-03T08:12:35.517Z,21.05
2023-10-03T08:13:34.750Z,21.13
2023-10-03T08:14:34.732Z,21.09
2023-10-03T08:15:35.689Z,21.11
2023-10-03T08:16:34.745Z,21.09
2023-10-03T08:17:34.734Z,21.11
2023-10-03T08:18:34.724Z,21.13
2023-10-03T08:19:34.670Z,21.17
2023-10-03T08:20:34.721Z,21.20
2023-10-03T08:21:35.574Z,21.26
2023-10-03T08:22:34.625Z,21.27
2023-10-03T08:23:38.635Z,21.30
2023-10-03T08:24:35.525Z,21.32
2023-10-03T08:25:34.593Z,21.32
2023-10-03T08:26:34.606Z,21.32
2023-10-03T08:27:35.522Z,21.21
2023-10-03T08:28:34.547Z,21.23
2023-10-03T08:29:34.525Z,21.13
2023-10-03T08:30:34.547Z,21.08
2023-10-03T08:31:34.481Z,21.06
2023-10-03T08:32:34.559Z,21.08
2023-10-03T08:33:34.599Z,21.08
2023-10-03T08:34:34.458Z,21.01
2023-10-03T08:35:34.501Z,21.02
2023-10-03T08:36:34.410Z,20.99
2023-10-03T08:37:34.421Z,21.02
2023-10-03T08:38:34.434Z,21.16
2023-10-03T08:39:34.735Z,21.26
2023-10-03T08:40:34.378Z,21.30
2023-10-03T08:41:34.346Z,21.44
2023-10-03T08:42:34.348Z,21.63
2023-10-03T08:43:34.321Z,21.97
2023-10-03T08:44:34.333Z,22.23
2023-10-03T08:45:34.323Z,21.99
2023-10-03T08:46:34.317Z,22.22
2023-10-03T08:47:34.390Z,22.50
2023-10-03T08:48:36.002Z,22.49
2023-10-03T08:49:34.235Z,22.38
2023-10-03T08:50:34.321Z,22.47
2023-10-03T08:51:34.518Z,22.09
2023-10-03T08:52:34.187Z,22.01
2023-10-03T08:53:34.254Z,21.95
2023-10-03T08:54:34.161Z,21.88
2023-10-03T08:55:34.178Z,21.74
2023-10-03T08:56:34.242Z,21.72
2023-10-03T08:57:34.118Z,21.74
2023-10-03T08:58:34.145Z,21.78
2023-10-03T08:59:35.074Z,21.75
2023-10-03T09:00:34.102Z,21.97
2023-10-03T09:01:34.107Z,21.94
2023-10-03T09:02:34.120Z,22.01
2023-10-03T09:03:34.914Z,22.16
2023-10-03T09:04:35.076Z,22.31
2023-10-03T09:05:34.073Z,22.60
2023-10-03T09:06:34.003Z,23.14
2023-10-03T09:07:34.979Z,23.80
2023-10-03T09:08:34.038Z,24.14
2023-10-03T09:09:33.962Z,24.04
2023-10-03T09:10:33.966Z,24.27
2023-10-03T09:11:33.983Z,24.45
2023-10-03T09:12:33.914Z,24.39
2023-10-03T09:13:33.953Z,23.87
2023-10-03T09:14:33.929Z,24.44
2023-10-03T09:15:33.935Z,24.02
2023-10-03T09:16:33.916Z,23.70
2023-10-03T09:17:35.807Z,23.38
2023-10-03T09:18:33.933Z,23.27
2023-10-03T09:19:33.827Z,22.84
2023-10-03T09:20:33.895Z,22.41
2023-10-03T09:21:34.578Z,22.01
2023-10-03T09:22:33.822Z,21.85
2023-10-03T09:23:33.804Z,21.75
2023-10-03T09:24:33.753Z,21.57
2023-10-03T09:25:33.771Z,21.51
2023-10-03T09:26:35.007Z,21.41
2023-10-03T09:27:33.748Z,21.39
2023-10-03T09:28:33.722Z,21.38
2023-10-03T09:29:34.831Z,21.41
2023-10-03T09:30:34.657Z,21.36
2023-10-03T09:31:33.689Z,21.34
2023-10-03T09:32:34.687Z,21.30
2023-10-03T09:33:33.764Z,21.30
2023-10-03T09:34:33.614Z,21.26
2023-10-03T09:35:33.681Z,21.27
2023-10-03T09:36:33.614Z,21.32
2023-10-03T09:37:33.585Z,21.32
2023-10-03T09:38:33.613Z,21.26
2023-10-03T09:39:33.576Z,21.16
2023-10-03T09:40:33.566Z,21.06
2023-10-03T09:41:33.578Z,21.08
2023-10-03T09:42:33.757Z,21.08
2023-10-03T09:43:33.496Z,21.06
2023-10-03T09:44:33.544Z,20.96
2023-10-03T09:45:33.498Z,20.90
2023-10-03T09:46:33.513Z,20.84
2023-10-03T09:47:37.416Z,20.84
2023-10-03T09:48:34.522Z,20.79
2023-10-03T09:49:33.419Z,20.77
2023-10-03T09:50:34.417Z,20.79
2023-10-03T09:51:33.389Z,20.86
2023-10-03T09:52:33.373Z,20.95
2023-10-03T09:53:33.404Z,21.08
2023-10-03T09:54:33.355Z,21.34
2023-10-03T09:55:33.369Z,21.48
2023-10-03T09:56:33.406Z,21.66
2023-10-03T09:57:33.329Z,21.88
2023-10-03T09:58:33.325Z,21.83
2023-10-03T09:59:37.331Z,21.94
2023-10-03T10:00:33.264Z,22.02
2023-10-03T10:01:33.298Z,22.06
2023-10-03T10:02:33.435Z,22.06
2023-10-03T10:03:33.387Z,21.81
2023-10-03T10:04:33.312Z,21.67
2023-10-03T10:05:33.243Z,21.72
2023-10-03T10:06:33.209Z,21.59
2023-10-03T10:07:33.173Z,21.44
2023-10-03T10:08:36.783Z,21.38
2023-10-03T10:09:34.220Z,21.35
2023-10-03T10:10:33.151Z,21.24
2023-10-03T10:11:33.247Z,21.20
2023-10-03T10:12:33.099Z,21.20
2023-10-03T10:13:33.117Z,21.29
2023-10-03T10:14:33.128Z,21.26
2023-10-03T10:15:33.092Z,21.23
2023-10-03T10:16:33.089Z,21.20
2023-10-03T10:17:33.363Z,21.05
2023-10-03T10:18:33.078Z,20.86
2023-10-03T10:19:33.069Z,20.84
2023-10-03T10:20:33.115Z,20.83
2023-10-03T10:21:33.235Z,20.86
2023-10-03T10:22:32.974Z,20.99
2023-10-03T10:23:33.003Z,21.04
2023-10-03T10:24:32.971Z,21.08
2023-10-03T10:25:32.937Z,21.05
2023-10-03T10:26:33.067Z,21.17
2023-10-03T10:27:32.947Z,21.14
2023-10-03T10:28:32.914Z,21.11
2023-10-03T10:29:32.921Z,21.04
2023-10-03T10:30:32.876Z,21.11
2023-10-03T10:31:32.870Z,21.14
2023-10-03T10:32:32.998Z,21.16
2023-10-03T10:33:33.879Z,20.96
2023-10-03T10:34:32.799Z,20.98
2023-10-03T10:35:32.847Z,20.91
2023-10-03T10:36:33.769Z,20.79
2023-10-03T10:37:32.763Z,20.71
2023-10-03T10:38:32.868Z,20.76
2023-10-03T10:39:32.734Z,20.79
2023-10-03T10:40:33.685Z,20.80
2023-10-03T10:41:32.799Z,20.90
2023-10-03T10:42:32.723Z,21.06
2023-10-03T10:43:32.682Z,21.11
2023-10-03T10:44:33.022Z,20.96
2023-10-03T10:45:32.681Z,20.90
2023-10-03T10:46:32.646Z,20.81
2023-10-03T10:47:32.773Z,20.84
2023-10-03T10:48:33.052Z,20.84
2023-10-03T10:49:32.923Z,20.79
2023-10-03T10:50:32.659Z,20.76
2023-10-03T10:51:32.600Z,20.64
2023-10-03T10:52:32.557Z,20.56
2023-10-03T10:53:32.614Z,20.54
2023-10-03T10:54:32.879Z,20.43
2023-10-03T10:55:32.548Z,20.43
2023-10-03T10:56:33.602Z,20.43
2023-10-03T10:57:32.677Z,20.47
2023-10-03T10:58:32.499Z,20.49
2023-10-03T10:59:32.547Z,20.43
2023-10-03T11:00:32.462Z,20.38
2023-10-03T11:01:32.569Z,20.35
2023-10-03T11:02:32.562Z,20.34
2023-10-03T11:03:32.577Z,20.34
2023-10-03T11:04:32.434Z,20.31
2023-10-03T11:05:32.423Z,20.25
2023-10-03T11:06:32.390Z,20.23
2023-10-03T11:07:32.381Z,20.23
2023-10-03T11:08:32.404Z,20.23
2023-10-03T11:09:32.354Z,20.23
2023-10-03T11:10:35.608Z,20.25
2023-10-03T11:11:32.376Z,20.25
2023-10-03T11:12:32.358Z,20.20
2023-10-03T11:13:33.041Z,20.00
2023-10-03T11:14:33.248Z,19.76
2023-10-03T11:15:32.282Z,19.54
2023-10-03T11:16:32.274Z,19.33
2023-10-03T11:17:36.282Z,19.20
2023-10-03T11:18:33.130Z,18.99
2023-10-03T11:19:32.260Z,18.62
2023-10-03T11:20:32.244Z,18.31
2023-10-03T11:21:36.102Z,18.12
2023-10-03T11:22:32.149Z,17.99
2023-10-03T11:23:32.247Z,17.92
2023-10-03T11:24:32.151Z,17.88
2023-10-03T11:25:32.138Z,17.85
2023-10-03T11:26:32.894Z,17.79
2023-10-03T11:27:32.099Z,17.74
2023-10-03T11:28:32.102Z,17.69
2023-10-03T11:29:32.151Z,17.66
2023-10-03T11:30:32.079Z,17.63
2023-10-03T11:31:32.066Z,17.64
2023-10-03T11:32:32.388Z,17.63
2023-10-03T11:33:32.131Z,17.64
2023-10-03T11:34:31.985Z,17.67
2023-10-03T11:35:36.066Z,17.67
2023-10-03T11:36:32.020Z,17.71
2023-10-03T11:37:31.969Z,17.78
2023-10-03T11:38:32.021Z,17.84
2023-10-03T11:39:31.918Z,17.97
2023-10-03T11:40:31.963Z,18.03
2023-10-03T11:41:31.921Z,18.07
2023-10-03T11:42:31.880Z,18.15
2023-10-03T11:43:31.888Z,18.12
2023-10-03T11:44:31.887Z,18.12
2023-10-03T11:45:32.110Z,18.09
2023-10-03T11:46:31.997Z,18.03
2023-10-03T11:47:31.874Z,18.02
2023-10-03T11:48:31.983Z,18.04
2023-10-03T11:49:31.826Z,18.02
2023-10-03T11:50:31.797Z,18.00
2023-10-03T11:51:31.796Z,18.03
2023-10-03T11:52:31.783Z,18.10
2023-10-03T11:53:32.024Z,18.18
2023-10-03T11:54:31.754Z,18.03
2023-10-03T11:55:31.757Z,18.04
2023-10-03T11:56:31.757Z,18.00
2023-10-03T11:57:31.665Z,17.99
2023-10-03T11:58:32.655Z,18.04
2023-10-03T11:59:31.634Z,18.07
2023-10-03T12:00:32.358Z,18.10
2023-10-03T12:01:31.683Z,18.13
2023-10-03T12:02:32.646Z,18.15
2023-10-03T12:03:31.854Z,18.19
2023-10-03T12:04:31.613Z,18.22
2023-10-03T12:05:31.558Z,18.24
2023-10-03T12:06:31.576Z,18.17
2023-10-03T12:07:32.040Z,18.18
2023-10-03T12:08:31.584Z,18.13
2023-10-03T12:09:31.531Z,18.15
2023-10-03T12:10:32.480Z,18.10
2023-10-03T12:11:31.497Z,18.10
2023-10-03T12:12:31.488Z,17.95
2023-10-03T12:13:31.475Z,17.66
2023-10-03T12:14:31.817Z,16.86
2023-10-03T12:15:31.503Z,16.41
2023-10-03T12:16:31.429Z,16.16
2023-10-03T12:17:31.412Z,16.03
2023-10-03T12:18:31.490Z,15.99
2023-10-03T12:19:32.334Z,15.94
2023-10-03T12:20:31.431Z,15.92
2023-10-03T12:21:31.370Z,15.99
2023-10-03T12:22:31.389Z,16.00
2023-10-03T12:23:31.341Z,16.09
2023-10-03T12:24:31.301Z,16.07
2023-10-03T12:25:35.071Z,16.01
2023-10-03T12:26:31.350Z,15.96
2023-10-03T12:27:31.286Z,15.99
2023-10-03T12:28:31.273Z,16.04
2023-10-03T12:29:31.256Z,16.11
2023-10-03T12:30:31.254Z,16.20
2023-10-03T12:31:31.254Z,16.27
2023-10-03T12:32:31.260Z,16.37
2023-10-03T12:33:31.259Z,16.37
2023-10-03T12:34:31.237Z,16.38
2023-10-03T12:35:31.148Z,16.45
2023-10-03T12:36:31.211Z,16.49
2023-10-03T12:37:31.249Z,16.48
2023-10-03T12:38:31.156Z,16.52
2023-10-03T12:39:31.556Z,16.63
2023-10-03T12:40:31.123Z,16.62
2023-10-03T12:41:31.077Z,16.63
2023-10-03T12:42:31.789Z,16.65
2023-10-03T12:43:31.101Z,16.65
2023-10-03T12:44:35.066Z,16.67
2023-10-03T12:45:31.164Z,16.67
2023-10-03T12:46:31.044Z,16.70
2023-10-03T12:47:31.411Z,16.73
2023-10-03T12:48:31.084Z,16.68
2023-10-03T12:49:31.715Z,16.73
2023-10-03T12:50:37.010Z,16.75
2023-10-03T12:51:30.973Z,16.81
2023-10-03T12:52:31.299Z,16.93